sensor_id;sensor_type;location;lat;lon;timestamp;pressure;altitude;pressure_sealevel;temperature;humidity
51687;BME280;37774;52.192;4.584;2022-10-13T00:00:28;103917.78;;;10.23;100.00
51687;BME280;37774;52.192;4.584;2022-10-13T00:02:58;103863.25;;;9.84;100.00
51687;BME280;37774;52.192;4.584;2022-10-13T00:05:25;103755.34;;;8.93;100.00
51687;BME280;37774;52.192;4.584;2022-10-13T00:07:55;103967.44;;;10.30;100.00
51687;BME280;37774;52.192;4.584;2022-10-13T00:10:23;103974.28;;;10.28;100.00
51687;BME280;37774;52.192;4.584;2022-10-13T00:12:50;103947.69;;;9.94;100.00
51687;BME280;37774;52.192;4.584;2022-10-13T00:15:18;104019.69;;;10.36;100.00
51687;BME280;37774;52.192;4.584;2022-10-13T00:17:45;103942.53;;;9.76;100.00
51687;BME280;37774;52.192;4.584;2022-10-13T00:20:12;104022.47;;;10.21;100.00
51687;BME280;37774;52.192;4.584;2022-10-13T00:22:39;104029.00;;;10.11;100.00
51687;BME280;37774;52.192;4.584;2022-10-13T00:25:08;104068.19;;;10.35;100.00
51687;BME280;37774;52.192;4.584;2022-10-13T00:27:34;104039.44;;;10.13;100.00
51687;BME280;37774;52.192;4.584;2022-10-13T00:30:02;104100.66;;;10.44;100.00
51687;BME280;37774;52.192;4.584;2022-10-13T00:32:28;104110.22;;;10.45;100.00
51687;BME280;37774;52.192;4.584;2022-10-13T00:34:55;104130.28;;;10.47;100.00
51687;BME280;37774;52.192;4.584;2022-10-13T00:37:23;104150.41;;;10.51;100.00
51687;BME280;37774;52.192;4.584;2022-10-13T00:39:49;104154.94;;;10.56;100.00
51687;BME280;37774;52.192;4.584;2022-10-13T00:42:17;104083.56;;;10.11;100.00
51687;BME280;37774;52.192;4.584;2022-10-13T00:44:59;104173.06;;;10.54;100.00
51687;BME280;37774;52.192;4.584;2022-10-13T00:47:29;104177.91;;;10.46;100.00
51687;BME280;37774;52.192;4.584;2022-10-13T00:49:57;104225.72;;;10.68;100.00
51687;BME280;37774;52.192;4.584;2022-10-13T00:52:24;104182.72;;;10.38;100.00
51687;BME280;37774;52.192;4.584;2022-10-13T00:54:52;104243.38;;;10.75;100.00
51687;BME280;37774;52.192;4.584;2022-10-13T00:57:21;104222.56;;;10.56;100.00
51687;BME280;37774;52.192;4.584;2022-10-13T00:59:48;104276.53;;;10.79;100.00
51687;BME280;37774;52.192;4.584;2022-10-13T01:02:15;104229.91;;;10.46;100.00
51687;BME280;37774;52.192;4.584;2022-10-13T01:04:44;104229.63;;;10.40;100.00
51687;BME280;37774;52.192;4.584;2022-10-13T01:07:13;104307.91;;;10.82;100.00
51687;BME280;37774;52.192;4.584;2022-10-13T01:09:41;104262.16;;;10.50;100.00
51687;BME280;37774;52.192;4.584;2022-10-13T01:12:17;104190.03;;;10.09;100.00
51687;BME280;37774;52.192;4.584;2022-10-13T01:14:50;104151.47;;;9.64;100.00
51687;BME280;37774;52.192;4.584;2022-10-13T01:17:25;104375.03;;;10.90;100.00
51687;BME280;37774;52.192;4.584;2022-10-13T01:20:23;104374.28;;;10.92;100.00
51687;BME280;37774;52.192;4.584;2022-10-13T01:23:16;104382.28;;;10.97;100.00
51687;BME280;37774;52.192;4.584;2022-10-13T01:25:57;104402.38;;;11.00;100.00
51687;BME280;37774;52.192;4.584;2022-10-13T01:28:43;104423.22;;;11.00;100.00
51687;BME280;37774;52.192;4.584;2022-10-13T01:31:19;104443.94;;;10.98;100.00
51687;BME280;37774;52.192;4.584;2022-10-13T01:33:55;104404.31;;;10.68;100.00
51687;BME280;37774;52.192;4.584;2022-10-13T01:36:30;104435.38;;;10.82;100.00
51687;BME280;37774;52.192;4.584;2022-10-13T01:39:02;104267.03;;;9.73;100.00
51687;BME280;37774;52.192;4.584;2022-10-13T01:41:34;104484.84;;;11.01;100.00
51687;BME280;37774;52.192;4.584;2022-10-13T01:44:07;104514.59;;;11.06;100.00
51687;BME280;37774;52.192;4.584;2022-10-13T01:46:39;104528.50;;;11.06;100.00
51687;BME280;37774;52.192;4.584;2022-10-13T01:49:11;104537.25;;;11.08;100.00
51687;BME280;37774;52.192;4.584;2022-10-13T01:51:38;104529.31;;;11.05;100.00
51687;BME280;37774;52.192;4.584;2022-10-13T01:54:06;104429.63;;;10.54;100.00
51687;BME280;37774;52.192;4.584;2022-10-13T01:56:33;104531.56;;;11.16;100.00
51687;BME280;37774;52.192;4.584;2022-10-13T01:59:03;104543.09;;;11.21;100.00
51687;BME280;37774;52.192;4.584;2022-10-13T02:01:43;104494.88;;;10.93;100.00
51687;BME280;37774;52.192;4.584;2022-10-13T02:04:20;104544.25;;;11.09;100.00
51687;BME280;37774;52.192;4.584;2022-10-13T02:06:52;104517.63;;;10.97;100.00
51687;BME280;37774;52.192;4.584;2022-10-13T02:09:27;104558.72;;;11.21;100.00
51687;BME280;37774;52.192;4.584;2022-10-13T02:12:01;104574.50;;;11.24;100.00
51687;BME280;37774;52.192;4.584;2022-10-13T02:14:32;104570.13;;;11.23;100.00
51687;BME280;37774;52.192;4.584;2022-10-13T02:17:04;104573.69;;;11.25;100.00
51687;BME280;37774;52.192;4.584;2022-10-13T02:19:33;104540.13;;;11.13;100.00
51687;BME280;37774;52.192;4.584;2022-10-13T02:22:02;104575.63;;;11.29;100.00
51687;BME280;37774;52.192;4.584;2022-10-13T02:24:29;104581.66;;;11.28;100.00
51687;BME280;37774;52.192;4.584;2022-10-13T02:26:56;104595.63;;;11.30;100.00
51687;BME280;37774;52.192;4.584;2022-10-13T02:29:23;104599.22;;;11.32;100.00
51687;BME280;37774;52.192;4.584;2022-10-13T02:31:50;104539.78;;;10.89;100.00
51687;BME280;37774;52.192;4.584;2022-10-13T02:34:20;104619.94;;;11.31;100.00
51687;BME280;37774;52.192;4.584;2022-10-13T02:36:47;104627.59;;;11.28;100.00
51687;BME280;37774;52.192;4.584;2022-10-13T02:39:14;104563.03;;;10.86;100.00
51687;BME280;37774;52.192;4.584;2022-10-13T02:41:42;104597.22;;;11.10;100.00
51687;BME280;37774;52.192;4.584;2022-10-13T02:44:09;104619.69;;;11.08;100.00
51687;BME280;37774;52.192;4.584;2022-10-13T02:46:35;104661.69;;;11.32;100.00
51687;BME280;37774;52.192;4.584;2022-10-13T02:49:03;104670.50;;;11.34;100.00
51687;BME280;37774;52.192;4.584;2022-10-13T02:51:31;104675.03;;;11.38;100.00
51687;BME280;37774;52.192;4.584;2022-10-13T02:53:57;104618.47;;;11.01;100.00
51687;BME280;37774;52.192;4.584;2022-10-13T02:56:24;104685.91;;;11.48;100.00
51687;BME280;37774;52.192;4.584;2022-10-13T02:58:51;104679.78;;;11.47;100.00
51687;BME280;37774;52.192;4.584;2022-10-13T03:01:18;104688.66;;;11.51;100.00
51687;BME280;37774;52.192;4.584;2022-10-13T03:03:44;104695.50;;;11.49;100.00
51687;BME280;37774;52.192;4.584;2022-10-13T03:06:11;104735.56;;;11.51;100.00
51687;BME280;37774;52.192;4.584;2022-10-13T03:08:39;104748.50;;;11.49;100.00
51687;BME280;37774;52.192;4.584;2022-10-13T03:11:06;104714.13;;;11.22;100.00
51687;BME280;37774;52.192;4.584;2022-10-13T03:13:33;104772.03;;;11.51;100.00
51687;BME280;37774;52.192;4.584;2022-10-13T03:15:59;104773.81;;;11.52;100.00
51687;BME280;37774;52.192;4.584;2022-10-13T03:18:26;104771.94;;;11.49;100.00
51687;BME280;37774;52.192;4.584;2022-10-13T03:20:57;104735.28;;;11.28;100.00
51687;BME280;37774;52.192;4.584;2022-10-13T03:23:24;104745.69;;;11.28;100.00
51687;BME280;37774;52.192;4.584;2022-10-13T03:25:53;104803.00;;;11.63;100.00
51687;BME280;37774;52.192;4.584;2022-10-13T03:28:20;104795.28;;;11.64;100.00
51687;BME280;37774;52.192;4.584;2022-10-13T03:30:47;104808.56;;;11.69;100.00
51687;BME280;37774;52.192;4.584;2022-10-13T03:33:14;104776.66;;;11.40;100.00
51687;BME280;37774;52.192;4.584;2022-10-13T03:35:41;104810.50;;;11.73;100.00
51687;BME280;37774;52.192;4.584;2022-10-13T03:38:08;104807.97;;;11.75;100.00
51687;BME280;37774;52.192;4.584;2022-10-13T03:40:35;104800.31;;;11.78;100.00
51687;BME280;37774;52.192;4.584;2022-10-13T03:43:03;104810.16;;;11.83;100.00
51687;BME280;37774;52.192;4.584;2022-10-13T03:45:30;104806.78;;;11.86;100.00
51687;BME280;37774;52.192;4.584;2022-10-13T03:47:56;104812.00;;;11.86;100.00
51687;BME280;37774;52.192;4.584;2022-10-13T03:50:24;104804.78;;;11.80;100.00
51687;BME280;37774;52.192;4.584;2022-10-13T03:52:50;104499.03;;;10.05;100.00
51687;BME280;37774;52.192;4.584;2022-10-13T03:55:17;104774.91;;;11.74;100.00
51687;BME280;37774;52.192;4.584;2022-10-13T03:57:44;104811.66;;;11.96;100.00
51687;BME280;37774;52.192;4.584;2022-10-13T04:00:14;104818.94;;;12.02;100.00
51687;BME280;37774;52.192;4.584;2022-10-13T04:02:40;104810.16;;;12.00;100.00
51687;BME280;37774;52.192;4.584;2022-10-13T04:05:08;104819.81;;;12.03;100.00
51687;BME280;37774;52.192;4.584;2022-10-13T04:07:35;104816.47;;;12.05;100.00
51687;BME280;37774;52.192;4.584;2022-10-13T04:10:01;104850.66;;;11.60;100.00
51687;BME280;37774;52.192;4.584;2022-10-13T04:12:28;104887.22;;;11.78;100.00
51687;BME280;37774;52.192;4.584;2022-10-13T04:14:55;104942.44;;;12.04;100.00
51687;BME280;37774;52.192;4.584;2022-10-13T04:17:23;104825.28;;;11.39;100.00
51687;BME280;37774;52.192;4.584;2022-10-13T04:19:50;104873.22;;;11.76;100.00
51687;BME280;37774;52.192;4.584;2022-10-13T04:22:17;104910.00;;;11.82;100.00
51687;BME280;37774;52.192;4.584;2022-10-13T04:24:44;104832.94;;;11.36;100.00
51687;BME280;37774;52.192;4.584;2022-10-13T04:27:11;104873.84;;;11.55;100.00
51687;BME280;37774;52.192;4.584;2022-10-13T04:29:37;104965.16;;;12.07;100.00
51687;BME280;37774;52.192;4.584;2022-10-13T04:32:04;104976.41;;;12.06;100.00
51687;BME280;37774;52.192;4.584;2022-10-13T04:34:32;104986.84;;;12.06;100.00
51687;BME280;37774;52.192;4.584;2022-10-13T04:36:59;104993.94;;;12.08;100.00
51687;BME280;37774;52.192;4.584;2022-10-13T04:39:26;104998.34;;;12.09;100.00
51687;BME280;37774;52.192;4.584;2022-10-13T04:41:53;105002.63;;;12.09;100.00
51687;BME280;37774;52.192;4.584;2022-10-13T04:44:20;104951.06;;;11.70;100.00
51687;BME280;37774;52.192;4.584;2022-10-13T04:46:47;104776.53;;;10.56;100.00
51687;BME280;37774;52.192;4.584;2022-10-13T04:49:15;105068.47;;;12.05;100.00
51687;BME280;37774;52.192;4.584;2022-10-13T04:51:43;105089.16;;;12.02;100.00
51687;BME280;37774;52.192;4.584;2022-10-13T04:54:10;104898.94;;;10.29;100.00
51687;BME280;37774;52.192;4.584;2022-10-13T04:56:37;104960.84;;;10.49;100.00
51687;BME280;37774;52.192;4.584;2022-10-13T04:59:04;105283.53;;;11.81;100.00
51687;BME280;37774;52.192;4.584;2022-10-13T05:01:31;105406.91;;;12.10;100.00
51687;BME280;37774;52.192;4.584;2022-10-13T05:04:00;105428.13;;;12.17;100.00
51687;BME280;37774;52.192;4.584;2022-10-13T05:06:29;105530.66;;;12.16;100.00
51687;BME280;37774;52.192;4.584;2022-10-13T05:08:58;105482.81;;;11.87;100.00
51687;BME280;37774;52.192;4.584;2022-10-13T05:11:26;105541.78;;;12.13;100.00
51687;BME280;37774;52.192;4.584;2022-10-13T05:13:53;105581.28;;;12.19;100.00
51687;BME280;37774;52.192;4.584;2022-10-13T05:16:21;105608.97;;;12.17;100.00
51687;BME280;37774;52.192;4.584;2022-10-13T05:18:49;105505.22;;;11.69;100.00
51687;BME280;37774;52.192;4.584;2022-10-13T05:21:17;105551.56;;;12.02;100.00
51687;BME280;37774;52.192;4.584;2022-10-13T05:23:45;105507.16;;;11.87;100.00
51687;BME280;37774;52.192;4.584;2022-10-13T05:26:15;105531.97;;;12.09;100.00
51687;BME280;37774;52.192;4.584;2022-10-13T05:28:42;105532.47;;;12.17;100.00
51687;BME280;37774;52.192;4.584;2022-10-13T05:31:10;105276.75;;;10.96;100.00
51687;BME280;37774;52.192;4.584;2022-10-13T05:33:38;105467.44;;;12.20;100.00
51687;BME280;37774;52.192;4.584;2022-10-13T05:36:06;105465.75;;;12.20;100.00
51687;BME280;37774;52.192;4.584;2022-10-13T05:38:33;105449.06;;;12.18;100.00
51687;BME280;37774;52.192;4.584;2022-10-13T05:41:01;105186.03;;;10.74;100.00
51687;BME280;37774;52.192;4.584;2022-10-13T05:43:31;105361.31;;;12.19;100.00
51687;BME280;37774;52.192;4.584;2022-10-13T05:45:58;105134.56;;;10.99;100.00
51687;BME280;37774;52.192;4.584;2022-10-13T05:48:25;105359.00;;;12.23;100.00
51687;BME280;37774;52.192;4.584;2022-10-13T05:50:53;105387.13;;;12.29;100.00
51687;BME280;37774;52.192;4.584;2022-10-13T05:53:21;105377.44;;;12.26;100.00
51687;BME280;37774;52.192;4.584;2022-10-13T05:55:49;105400.28;;;12.31;100.00
51687;BME280;37774;52.192;4.584;2022-10-13T05:58:17;105403.38;;;12.10;100.00
51687;BME280;37774;52.192;4.584;2022-10-13T06:00:46;105414.31;;;12.33;100.00
51687;BME280;37774;52.192;4.584;2022-10-13T06:03:14;105391.06;;;12.37;100.00
51687;BME280;37774;52.192;4.584;2022-10-13T06:05:43;105367.44;;;12.04;100.00
51687;BME280;37774;52.192;4.584;2022-10-13T06:08:12;105418.25;;;12.41;100.00
51687;BME280;37774;52.192;4.584;2022-10-13T06:10:39;105361.00;;;11.84;100.00
51687;BME280;37774;52.192;4.584;2022-10-13T06:13:07;105436.75;;;12.46;100.00
51687;BME280;37774;52.192;4.584;2022-10-13T06:15:34;105483.72;;;12.46;100.00
51687;BME280;37774;52.192;4.584;2022-10-13T06:18:06;105079.72;;;10.80;100.00
51687;BME280;37774;52.192;4.584;2022-10-13T06:20:33;105322.88;;;12.46;100.00
51687;BME280;37774;52.192;4.584;2022-10-13T06:23:00;105279.03;;;12.24;100.00
51687;BME280;37774;52.192;4.584;2022-10-13T06:25:26;105344.75;;;12.48;100.00
51687;BME280;37774;52.192;4.584;2022-10-13T06:27:55;105421.13;;;12.46;100.00
51687;BME280;37774;52.192;4.584;2022-10-13T06:30:21;105470.97;;;12.50;100.00
51687;BME280;37774;52.192;4.584;2022-10-13T06:32:48;105546.47;;;12.47;100.00
51687;BME280;37774;52.192;4.584;2022-10-13T06:35:16;105460.00;;;11.97;100.00
51687;BME280;37774;52.192;4.584;2022-10-13T06:37:43;105305.69;;;10.88;100.00
51687;BME280;37774;52.192;4.584;2022-10-13T06:40:11;105368.63;;;11.09;100.00
51687;BME280;37774;52.192;4.584;2022-10-13T06:42:37;105642.75;;;12.57;100.00
51687;BME280;37774;52.192;4.584;2022-10-13T06:45:05;105664.09;;;12.65;100.00
51687;BME280;37774;52.192;4.584;2022-10-13T06:47:31;105672.84;;;12.66;100.00
51687;BME280;37774;52.192;4.584;2022-10-13T06:49:58;105678.88;;;12.65;100.00
51687;BME280;37774;52.192;4.584;2022-10-13T06:52:26;105700.63;;;12.65;100.00
51687;BME280;37774;52.192;4.584;2022-10-13T06:54:53;105694.00;;;12.70;100.00
51687;BME280;37774;52.192;4.584;2022-10-13T06:57:19;105695.53;;;12.67;100.00
51687;BME280;37774;52.192;4.584;2022-10-13T06:59:46;105598.00;;;11.81;100.00
51687;BME280;37774;52.192;4.584;2022-10-13T07:02:13;105657.97;;;11.81;100.00
51687;BME280;37774;52.192;4.584;2022-10-13T07:04:40;105679.75;;;11.81;100.00
51687;BME280;37774;52.192;4.584;2022-10-13T07:07:06;105878.63;;;12.73;100.00
51687;BME280;37774;52.192;4.584;2022-10-13T07:09:34;105881.25;;;12.73;100.00
51687;BME280;37774;52.192;4.584;2022-10-13T07:12:01;105808.03;;;12.71;100.00
51687;BME280;37774;52.192;4.584;2022-10-13T07:14:28;105781.84;;;12.70;100.00
51687;BME280;37774;52.192;4.584;2022-10-13T07:16:54;105813.50;;;12.75;100.00
51687;BME280;37774;52.192;4.584;2022-10-13T07:19:21;105799.97;;;12.53;100.00
51687;BME280;37774;52.192;4.584;2022-10-13T07:21:48;105888.66;;;12.80;100.00
51687;BME280;37774;52.192;4.584;2022-10-13T07:24:14;105832.34;;;12.84;100.00
51687;BME280;37774;52.192;4.584;2022-10-13T07:26:42;105808.16;;;12.73;100.00
51687;BME280;37774;52.192;4.584;2022-10-13T07:29:09;105885.94;;;12.92;100.00
51687;BME280;37774;52.192;4.584;2022-10-13T07:31:36;105736.50;;;11.86;100.00
51687;BME280;37774;52.192;4.584;2022-10-13T07:34:03;105957.53;;;12.96;100.00
51687;BME280;37774;52.192;4.584;2022-10-13T07:36:31;106008.47;;;13.03;100.00
51687;BME280;37774;52.192;4.584;2022-10-13T07:38:58;106123.50;;;13.04;100.00
51687;BME280;37774;52.192;4.584;2022-10-13T07:41:25;106139.75;;;13.00;100.00
51687;BME280;37774;52.192;4.584;2022-10-13T07:43:55;106205.22;;;13.15;100.00
51687;BME280;37774;52.192;4.584;2022-10-13T07:46:22;106246.38;;;12.80;100.00
51687;BME280;37774;52.192;4.584;2022-10-13T07:48:51;106373.72;;;13.22;100.00
51687;BME280;37774;52.192;4.584;2022-10-13T07:51:18;106413.69;;;13.33;100.00
51687;BME280;37774;52.192;4.584;2022-10-13T07:53:45;106359.44;;;12.91;100.00
51687;BME280;37774;52.192;4.584;2022-10-13T07:56:13;106461.03;;;13.49;100.00
51687;BME280;37774;52.192;4.584;2022-10-13T07:58:42;106487.63;;;13.55;100.00
51687;BME280;37774;52.192;4.584;2022-10-13T08:01:10;106439.75;;;13.31;100.00
51687;BME280;37774;52.192;4.584;2022-10-13T08:03:38;106464.09;;;13.55;100.00
51687;BME280;37774;52.192;4.584;2022-10-13T08:06:06;106385.69;;;13.18;100.00
51687;BME280;37774;52.192;4.584;2022-10-13T08:08:33;106452.97;;;13.58;100.00
51687;BME280;37774;52.192;4.584;2022-10-13T08:11:01;106456.78;;;13.63;100.00
51687;BME280;37774;52.192;4.584;2022-10-13T08:13:27;106409.31;;;13.57;100.00
51687;BME280;37774;52.192;4.584;2022-10-13T08:15:54;106369.50;;;13.61;100.00
51687;BME280;37774;52.192;4.584;2022-10-13T08:18:22;106320.41;;;13.57;100.00
51687;BME280;37774;52.192;4.584;2022-10-13T08:20:49;106220.88;;;13.15;100.00
51687;BME280;37774;52.192;4.584;2022-10-13T08:23:16;106277.00;;;13.72;100.00
51687;BME280;37774;52.192;4.584;2022-10-13T08:25:43;106240.47;;;13.74;100.00
51687;BME280;37774;52.192;4.584;2022-10-13T08:28:16;106173.47;;;13.76;100.00
51687;BME280;37774;52.192;4.584;2022-10-13T08:30:43;106113.25;;;13.75;100.00
51687;BME280;37774;52.192;4.584;2022-10-13T08:33:10;106044.06;;;13.69;100.00
51687;BME280;37774;52.192;4.584;2022-10-13T08:35:38;106061.63;;;13.85;100.00
51687;BME280;37774;52.192;4.584;2022-10-13T08:38:09;106015.44;;;13.86;100.00
51687;BME280;37774;52.192;4.584;2022-10-13T08:40:38;105978.75;;;13.84;100.00
51687;BME280;37774;52.192;4.584;2022-10-13T08:43:05;105900.84;;;13.50;100.00
51687;BME280;37774;52.192;4.584;2022-10-13T08:45:33;105920.50;;;13.87;100.00
51687;BME280;37774;52.192;4.584;2022-10-13T08:48:02;105811.31;;;13.39;100.00
51687;BME280;37774;52.192;4.584;2022-10-13T08:50:34;105680.34;;;12.75;100.00
51687;BME280;37774;52.192;4.584;2022-10-13T08:53:04;105859.53;;;14.03;100.00
51687;BME280;37774;52.192;4.584;2022-10-13T08:55:35;105833.19;;;14.00;100.00
51687;BME280;37774;52.192;4.584;2022-10-13T08:58:11;105756.47;;;13.69;100.00
51687;BME280;37774;52.192;4.584;2022-10-13T09:00:40;105788.72;;;14.00;100.00
51687;BME280;37774;52.192;4.584;2022-10-13T09:03:19;105773.75;;;13.97;100.00
51687;BME280;37774;52.192;4.584;2022-10-13T09:05:57;105681.06;;;13.46;100.00
51687;BME280;37774;52.192;4.584;2022-10-13T09:08:31;105756.81;;;13.91;100.00
51687;BME280;37774;52.192;4.584;2022-10-13T09:11:01;105705.91;;;13.54;100.00
51687;BME280;37774;52.192;4.584;2022-10-13T09:13:28;105797.03;;;13.78;100.00
51687;BME280;37774;52.192;4.584;2022-10-13T09:15:56;105836.53;;;13.67;100.00
51687;BME280;37774;52.192;4.584;2022-10-13T09:18:28;105949.06;;;13.84;100.00
51687;BME280;37774;52.192;4.584;2022-10-13T09:21:09;106034.38;;;13.82;100.00
51687;BME280;37774;52.192;4.584;2022-10-13T09:23:38;106064.50;;;13.62;100.00
51687;BME280;37774;52.192;4.584;2022-10-13T09:26:13;106037.88;;;13.54;100.00
51687;BME280;37774;52.192;4.584;2022-10-13T09:28:41;105797.19;;;12.37;100.00
51687;BME280;37774;52.192;4.584;2022-10-13T09:31:14;105924.31;;;13.49;100.00
51687;BME280;37774;52.192;4.584;2022-10-13T09:33:42;105854.53;;;13.63;100.00
51687;BME280;37774;52.192;4.584;2022-10-13T09:36:11;105742.56;;;13.40;100.00
51687;BME280;37774;52.192;4.584;2022-10-13T09:38:42;105725.09;;;13.69;100.00
51687;BME280;37774;52.192;4.584;2022-10-13T09:41:16;105674.59;;;13.70;100.00
51687;BME280;37774;52.192;4.584;2022-10-13T09:43:58;105633.81;;;13.74;100.00
51687;BME280;37774;52.192;4.584;2022-10-13T09:46:26;105387.06;;;12.59;100.00
51687;BME280;37774;52.192;4.584;2022-10-13T09:48:55;105568.25;;;13.86;100.00
51687;BME280;37774;52.192;4.584;2022-10-13T09:51:32;105508.59;;;13.79;100.00
51687;BME280;37774;52.192;4.584;2022-10-13T09:54:01;105357.25;;;13.19;100.00
51687;BME280;37774;52.192;4.584;2022-10-13T09:56:32;105425.75;;;13.78;100.00
51687;BME280;37774;52.192;4.584;2022-10-13T09:59:09;105410.50;;;14.03;100.00
51687;BME280;37774;52.192;4.584;2022-10-13T10:01:40;105361.25;;;13.95;100.00
51687;BME280;37774;52.192;4.584;2022-10-13T10:04:11;105325.91;;;14.03;100.00
51687;BME280;37774;52.192;4.584;2022-10-13T10:06:39;105293.09;;;14.10;100.00
51687;BME280;37774;52.192;4.584;2022-10-13T10:09:31;105247.94;;;14.14;100.00
51687;BME280;37774;52.192;4.584;2022-10-13T10:12:02;105193.00;;;14.14;100.00
51687;BME280;37774;52.192;4.584;2022-10-13T10:14:31;105188.59;;;14.13;100.00
51687;BME280;37774;52.192;4.584;2022-10-13T10:17:03;105150.88;;;14.27;100.00
51687;BME280;37774;52.192;4.584;2022-10-13T10:19:48;105120.13;;;14.22;100.00
51687;BME280;37774;52.192;4.584;2022-10-13T10:22:27;105040.31;;;14.12;100.00
51687;BME280;37774;52.192;4.584;2022-10-13T10:25:06;104986.19;;;14.30;100.00
51687;BME280;37774;52.192;4.584;2022-10-13T10:27:41;104922.03;;;14.19;100.00
51687;BME280;37774;52.192;4.584;2022-10-13T10:30:14;104897.63;;;14.40;100.00
51687;BME280;37774;52.192;4.584;2022-10-13T10:32:44;104817.28;;;14.16;100.00
51687;BME280;37774;52.192;4.584;2022-10-13T10:35:15;104672.28;;;13.65;100.00
51687;BME280;37774;52.192;4.584;2022-10-13T10:37:56;104765.63;;;14.56;100.00
51687;BME280;37774;52.192;4.584;2022-10-13T10:40:35;104589.31;;;14.29;100.00
51687;BME280;37774;52.192;4.584;2022-10-13T10:46:11;104514.97;;;14.23;100.00
51687;BME280;37774;52.192;4.584;2022-10-13T10:48:42;104417.47;;;14.02;100.00
51687;BME280;37774;52.192;4.584;2022-10-13T10:51:10;104352.72;;;13.95;100.00
51687;BME280;37774;52.192;4.584;2022-10-13T10:53:44;104374.66;;;14.25;100.00
51687;BME280;37774;52.192;4.584;2022-10-13T10:56:20;104404.78;;;14.39;100.00
51687;BME280;37774;52.192;4.584;2022-10-13T10:58:52;104368.13;;;14.38;100.00
51687;BME280;37774;52.192;4.584;2022-10-13T11:01:30;104321.84;;;14.37;100.00
51687;BME280;37774;52.192;4.584;2022-10-13T11:04:17;104262.19;;;14.26;100.00
51687;BME280;37774;52.192;4.584;2022-10-13T11:06:55;104206.31;;;14.23;100.00
51687;BME280;37774;52.192;4.584;2022-10-13T11:12:24;104148.25;;;14.35;100.00
51687;BME280;37774;52.192;4.584;2022-10-13T11:15:02;104129.97;;;14.36;100.00
51687;BME280;37774;52.192;4.584;2022-10-13T11:17:32;104114.44;;;14.42;100.00
51687;BME280;37774;52.192;4.584;2022-10-13T11:23:30;104077.28;;;14.24;100.00
51687;BME280;37774;52.192;4.584;2022-10-13T11:29:01;104042.97;;;14.13;100.00
51687;BME280;37774;52.192;4.584;2022-10-13T11:31:30;104029.69;;;14.05;100.00
51687;BME280;37774;52.192;4.584;2022-10-13T11:33:59;104027.34;;;14.14;100.00
51687;BME280;37774;52.192;4.584;2022-10-13T11:36:37;103986.03;;;14.02;100.00
51687;BME280;37774;52.192;4.584;2022-10-13T11:45:11;103944.03;;;13.96;100.00
51687;BME280;37774;52.192;4.584;2022-10-13T11:48:04;103937.28;;;14.05;100.00
51687;BME280;37774;52.192;4.584;2022-10-13T11:50:36;103930.56;;;14.14;100.00
51687;BME280;37774;52.192;4.584;2022-10-13T11:53:12;103892.75;;;14.01;100.00
51687;BME280;37774;52.192;4.584;2022-10-13T11:55:48;103875.56;;;14.11;100.00
51687;BME280;37774;52.192;4.584;2022-10-13T11:58:17;103868.72;;;14.16;100.00
51687;BME280;37774;52.192;4.584;2022-10-13T12:00:54;103854.53;;;14.07;100.00
51687;BME280;37774;52.192;4.584;2022-10-13T12:03:24;103618.97;;;12.60;100.00
51687;BME280;37774;52.192;4.584;2022-10-13T12:05:53;103824.44;;;13.89;100.00
51687;BME280;37774;52.192;4.584;2022-10-13T12:08:21;103793.53;;;13.74;100.00
51687;BME280;37774;52.192;4.584;2022-10-13T12:10:51;103824.19;;;13.80;100.00
51687;BME280;37774;52.192;4.584;2022-10-13T12:13:22;103821.44;;;13.73;100.00
51687;BME280;37774;52.192;4.584;2022-10-13T12:15:57;103567.31;;;12.17;100.00
51687;BME280;37774;52.192;4.584;2022-10-13T12:18:27;103778.69;;;13.39;100.00
51687;BME280;37774;52.192;4.584;2022-10-13T12:20:59;103845.16;;;13.81;100.00
51687;BME280;37774;52.192;4.584;2022-10-13T12:23:29;103844.28;;;13.81;100.00
51687;BME280;37774;52.192;4.584;2022-10-13T12:25:57;103847.78;;;13.81;100.00
51687;BME280;37774;52.192;4.584;2022-10-13T12:28:26;103829.88;;;13.65;100.00
51687;BME280;37774;52.192;4.584;2022-10-13T12:30:57;103831.88;;;13.73;100.00
51687;BME280;37774;52.192;4.584;2022-10-13T12:33:30;103828.50;;;13.78;100.00
51687;BME280;37774;52.192;4.584;2022-10-13T12:36:10;103707.84;;;12.96;100.00
51687;BME280;37774;52.192;4.584;2022-10-13T12:38:42;103831.72;;;13.67;100.00
51687;BME280;37774;52.192;4.584;2022-10-13T12:41:14;103836.94;;;13.67;100.00
51687;BME280;37774;52.192;4.584;2022-10-13T12:43:42;103804.31;;;13.53;100.00
51687;BME280;37774;52.192;4.584;2022-10-13T12:46:11;103837.94;;;13.72;100.00
51687;BME280;37774;52.192;4.584;2022-10-13T12:48:38;103773.41;;;13.38;100.00
51687;BME280;37774;52.192;4.584;2022-10-13T12:51:14;103848.66;;;13.82;100.00
51687;BME280;37774;52.192;4.584;2022-10-13T12:53:43;103835.41;;;13.76;100.00
51687;BME280;37774;52.192;4.584;2022-10-13T12:56:25;103835.38;;;13.74;100.00
51687;BME280;37774;52.192;4.584;2022-10-13T12:58:55;103807.94;;;13.58;100.00
51687;BME280;37774;52.192;4.584;2022-10-13T13:01:27;103770.00;;;13.40;100.00
51687;BME280;37774;52.192;4.584;2022-10-13T13:03:57;103608.97;;;12.45;100.00
51687;BME280;37774;52.192;4.584;2022-10-13T13:06:29;103725.81;;;13.18;100.00
51687;BME280;37774;52.192;4.584;2022-10-13T13:09:21;103711.47;;;13.02;100.00
51687;BME280;37774;52.192;4.584;2022-10-13T13:14:43;103752.94;;;13.23;100.00